createdAt,value
2018-04-25T00:00:08.029Z,7.60
2018-04-25T00:02:36.303Z,7.00
2018-04-25T00:05:06.406Z,4.93
2018-04-25T00:07:34.679Z,5.03
2018-04-25T00:10:06.795Z,6.17
2018-04-25T00:12:35.147Z,5.27
2018-04-25T00:15:07.260Z,5.13
2018-04-25T00:17:35.527Z,6.70
2018-04-25T00:20:06.386Z,5.17
2018-04-25T00:22:34.636Z,4.83
2018-04-25T00:25:07.695Z,5.77
2018-04-25T00:27:35.966Z,5.53
2018-04-25T00:30:07.391Z,7.67
2018-04-25T00:32:36.244Z,6.20
2018-04-25T00:35:06.969Z,7.23
2018-04-25T00:37:35.375Z,5.40
2018-04-25T00:40:07.287Z,7.07
2018-04-25T00:42:35.578Z,5.83
2018-04-25T00:45:08.447Z,7.57
2018-04-25T00:47:36.743Z,8.47
2018-04-25T00:50:06.872Z,4.47
2018-04-25T00:52:35.474Z,5.60
2018-04-25T00:55:07.170Z,4.30
2018-04-25T00:57:35.488Z,6.37
2018-04-25T01:00:07.736Z,5.67
2018-04-25T01:02:36.031Z,5.30
2018-04-25T01:05:07.873Z,7.70
2018-04-25T01:07:36.170Z,7.40
2018-04-25T01:10:06.115Z,5.87
2018-04-25T01:12:34.410Z,6.33
2018-04-25T01:15:07.247Z,6.90
2018-04-25T01:17:35.531Z,6.57
2018-04-25T01:20:06.167Z,4.70
2018-04-25T01:22:35.092Z,4.70
2018-04-25T01:25:09.006Z,4.60
2018-04-25T01:27:38.045Z,5.17
2018-04-25T01:30:06.322Z,5.60
2018-04-25T01:32:37.547Z,10.03
2018-04-25T01:35:06.983Z,7.73
2018-04-25T01:37:47.317Z,5.67
2018-04-25T01:40:15.571Z,6.57
2018-04-25T01:42:59.448Z,5.30
2018-04-25T01:49:04.040Z,7.37
2018-04-25T01:51:43.944Z,5.23
2018-04-25T01:54:23.881Z,7.77
2018-04-25T01:57:03.827Z,6.80
2018-04-25T01:59:43.813Z,5.83
2018-04-25T02:02:11.604Z,6.63
2018-04-25T02:04:40.091Z,5.73
2018-04-25T02:07:08.381Z,6.70
2018-04-25T02:09:36.655Z,5.50
2018-04-25T02:12:04.955Z,5.10
2018-04-25T02:14:33.623Z,5.23
2018-04-25T02:17:01.895Z,6.63
2018-04-25T02:19:30.188Z,7.33
2018-04-25T02:21:58.461Z,7.17
2018-04-25T02:24:26.744Z,5.30
2018-04-25T02:26:55.204Z,5.17
2018-04-25T02:29:23.479Z,4.70
2018-04-25T02:31:51.915Z,5.53
2018-04-25T02:34:20.190Z,6.43
2018-04-25T02:36:48.475Z,5.93
2018-04-25T02:39:17.021Z,6.43
2018-04-25T02:41:45.325Z,8.20
2018-04-25T02:44:13.610Z,5.93
2018-04-25T02:46:41.891Z,7.50
2018-04-25T02:49:10.333Z,7.33
2018-04-25T02:51:38.610Z,6.53
2018-04-25T02:54:06.891Z,7.87
2018-04-25T02:56:35.164Z,5.90
2018-04-25T02:59:03.576Z,6.07
2018-04-25T03:01:31.860Z,5.43
2018-04-25T03:04:00.599Z,7.30
2018-04-25T03:06:28.879Z,5.40
2018-04-25T03:08:57.164Z,6.27
2018-04-25T03:11:25.425Z,5.37
2018-04-25T03:13:53.707Z,7.33
2018-04-25T03:16:21.982Z,6.33
2018-04-25T03:18:50.267Z,5.80
2018-04-25T03:21:18.537Z,5.53
2018-04-25T03:23:46.831Z,5.87
2018-04-25T03:26:15.121Z,7.90
2018-04-25T03:28:43.398Z,7.07
2018-04-25T03:31:11.699Z,7.03
2018-04-25T03:33:39.974Z,6.17
2018-04-25T03:36:08.473Z,8.63
2018-04-25T03:38:36.781Z,6.33
2018-04-25T03:41:05.088Z,9.17
2018-04-25T03:43:33.477Z,7.63
2018-04-25T03:46:01.902Z,6.80
2018-04-25T03:48:30.178Z,6.33
2018-04-25T03:50:58.474Z,7.47
2018-04-25T03:53:27.072Z,7.63
2018-04-25T03:55:55.351Z,6.07
2018-04-25T03:58:23.640Z,6.00
2018-04-25T04:00:52.071Z,8.30
2018-04-25T04:03:20.331Z,7.57
2018-04-25T04:05:48.922Z,8.00
2018-04-25T04:08:17.187Z,9.77
2018-04-25T04:10:45.483Z,6.60
2018-04-25T04:13:13.747Z,5.97
2018-04-25T04:15:42.032Z,6.60
2018-04-25T04:18:10.305Z,6.07
2018-04-25T04:20:38.599Z,7.43
2018-04-25T04:23:06.870Z,8.00
2018-04-25T04:25:35.485Z,10.30
2018-04-25T04:28:03.768Z,6.93
2018-04-25T04:30:32.291Z,12.20
2018-04-25T04:33:00.566Z,6.50
2018-04-25T04:35:28.882Z,6.50
2018-04-25T04:37:57.155Z,7.13
2018-04-25T04:40:25.462Z,7.10
2018-04-25T04:42:53.735Z,7.43
2018-04-25T04:45:22.015Z,6.30
2018-04-25T04:47:50.576Z,7.83
2018-04-25T04:50:18.952Z,8.60
2018-04-25T04:52:47.269Z,9.40
2018-04-25T04:55:15.543Z,6.60
2018-04-25T04:57:43.830Z,7.33
2018-04-25T05:00:12.106Z,10.10
2018-04-25T05:02:40.411Z,6.20
2018-04-25T05:05:08.691Z,8.20
2018-04-25T05:07:37.041Z,10.63
2018-04-25T05:10:06.655Z,7.60
2018-04-25T05:12:34.943Z,6.50
2018-04-25T05:15:07.079Z,8.60
2018-04-25T05:17:35.374Z,8.03
2018-04-25T05:20:06.626Z,9.60
2018-04-25T05:22:34.923Z,10.30
2018-04-25T05:25:06.276Z,6.60
2018-04-25T05:27:34.792Z,6.70
2018-04-25T05:30:06.601Z,8.33
2018-04-25T05:32:35.083Z,13.07
2018-04-25T05:35:06.411Z,9.23
2018-04-25T05:37:34.695Z,10.00
2018-04-25T05:40:08.612Z,7.40
2018-04-25T05:42:36.902Z,9.43
2018-04-25T05:45:08.410Z,13.73
2018-04-25T05:47:36.688Z,9.47
2018-04-25T05:50:10.754Z,8.57
2018-04-25T05:52:39.317Z,8.20
2018-04-25T05:55:07.604Z,10.13
2018-04-25T05:57:36.354Z,8.47
2018-04-25T06:00:06.391Z,8.53
2018-04-25T06:02:34.684Z,14.10
2018-04-25T06:05:09.058Z,7.70
2018-04-25T06:07:37.326Z,8.60
2018-04-25T06:10:06.826Z,16.57
2018-04-25T06:12:35.137Z,10.53
2018-04-25T06:15:06.495Z,10.07
2018-04-25T06:17:34.889Z,9.77
2018-04-25T06:20:09.796Z,9.60
2018-04-25T06:22:38.072Z,19.43
2018-04-25T06:25:06.560Z,12.63
2018-04-25T06:27:34.954Z,9.70
2018-04-25T06:30:06.265Z,12.37
2018-04-25T06:32:34.558Z,15.97
2018-04-25T06:35:05.907Z,10.13
2018-04-25T06:37:34.190Z,9.23
2018-04-25T06:40:08.958Z,9.20
2018-04-25T06:42:37.237Z,8.87
2018-04-25T06:45:07.250Z,9.20
2018-04-25T06:47:36.026Z,7.53
2018-04-25T06:50:06.479Z,7.80
2018-04-25T06:52:34.764Z,7.83
2018-04-25T06:55:10.022Z,8.93
2018-04-25T06:57:38.630Z,7.23
2018-04-25T07:00:06.910Z,7.97
2018-04-25T07:02:35.211Z,6.37
2018-04-25T07:05:07.489Z,7.60
2018-04-25T07:07:35.971Z,7.07
2018-04-25T07:10:05.782Z,6.50
2018-04-25T07:12:34.076Z,6.80
2018-04-25T07:15:05.531Z,6.27
2018-04-25T07:17:33.814Z,5.57
2018-04-25T07:20:07.379Z,5.70
2018-04-25T07:22:36.006Z,4.73
2018-04-25T07:25:05.694Z,4.60
2018-04-25T07:27:33.967Z,3.77
2018-04-25T07:30:08.997Z,4.77
2018-04-25T07:32:37.274Z,3.60
2018-04-25T07:35:06.289Z,5.43
2018-04-25T07:37:34.555Z,5.03
2018-04-25T07:40:06.659Z,3.17
2018-04-25T07:42:35.119Z,2.20
2018-04-25T07:45:07.407Z,3.77
2018-04-25T07:47:35.677Z,2.80
2018-04-25T07:50:05.506Z,2.87
2018-04-25T07:52:33.966Z,4.23
2018-04-25T07:55:09.136Z,2.20
2018-04-25T07:57:37.484Z,2.73
2018-04-25T08:00:05.863Z,2.33
2018-04-25T08:02:34.129Z,1.90
2018-04-25T08:05:05.557Z,2.23
2018-04-25T08:07:34.006Z,2.80
2018-04-25T08:10:09.120Z,2.23
2018-04-25T08:12:49.276Z,3.23
2018-04-25T08:15:29.110Z,4.90
2018-04-25T08:18:09.047Z,4.43
2018-04-25T08:20:48.904Z,4.97
2018-04-25T08:23:17.370Z,4.33
2018-04-25T08:25:45.664Z,4.97
2018-04-25T08:28:13.946Z,5.93
2018-04-25T08:30:42.504Z,5.13
2018-04-25T08:33:10.913Z,5.93
2018-04-25T08:35:39.188Z,5.43
2018-04-25T08:38:07.484Z,6.27
2018-04-25T08:40:35.986Z,3.80
2018-04-25T08:43:04.446Z,5.40
2018-04-25T08:45:32.717Z,4.10
2018-04-25T08:48:01.002Z,4.43
2018-04-25T08:50:29.273Z,3.17
2018-04-25T08:52:57.583Z,3.70
2018-04-25T08:55:25.859Z,3.67
2018-04-25T08:57:54.171Z,3.17
2018-04-25T09:00:22.452Z,3.57
2018-04-25T09:02:50.749Z,3.33
2018-04-25T09:05:19.016Z,4.03
2018-04-25T09:07:47.571Z,2.80
2018-04-25T09:10:15.987Z,3.37
2018-04-25T09:12:44.467Z,2.73
2018-04-25T09:15:12.744Z,2.73
2018-04-25T09:17:41.072Z,3.83
2018-04-25T09:20:09.383Z,2.70
2018-04-25T09:22:37.657Z,4.13
2018-04-25T09:25:05.970Z,2.50
2018-04-25T09:27:34.246Z,2.63
2018-04-25T09:30:05.644Z,2.60
2018-04-25T09:32:33.913Z,2.13
2018-04-25T09:35:06.019Z,1.87
2018-04-25T09:37:34.294Z,2.10
2018-04-25T09:40:05.819Z,2.40
2018-04-25T09:42:34.120Z,2.13
2018-04-25T09:45:09.260Z,2.03
2018-04-25T09:47:37.775Z,2.17
2018-04-25T09:50:06.091Z,4.37
2018-04-25T09:52:34.367Z,3.03
2018-04-25T09:55:06.319Z,3.10
2018-04-25T09:57:34.870Z,3.43
2018-04-25T10:00:06.615Z,2.50
2018-04-25T10:02:36.803Z,2.73
2018-04-25T10:05:06.142Z,3.57
2018-04-25T10:07:34.526Z,2.97
2018-04-25T10:10:06.896Z,2.87
2018-04-25T10:12:35.185Z,2.50
2018-04-25T10:15:07.191Z,2.47
2018-04-25T10:17:35.485Z,3.23
2018-04-25T10:20:06.672Z,2.87
2018-04-25T10:22:35.323Z,2.50
2018-04-25T10:25:07.087Z,2.47
2018-04-25T10:27:35.607Z,2.83
2018-04-25T10:30:07.431Z,2.00
2018-04-25T10:32:35.836Z,2.03
2018-04-25T10:35:06.718Z,2.73
2018-04-25T10:37:35.016Z,3.13
2018-04-25T10:40:07.119Z,2.23
2018-04-25T10:42:35.420Z,3.30
2018-04-25T10:45:07.468Z,4.00
2018-04-25T10:47:35.749Z,3.63
2018-04-25T10:50:05.689Z,2.23
2018-04-25T10:52:34.082Z,2.73
2018-04-25T10:55:05.803Z,4.17
2018-04-25T10:57:34.398Z,2.67
2018-04-25T11:00:08.316Z,2.30
2018-04-25T11:02:37.034Z,1.77
2018-04-25T11:05:05.922Z,1.97
2018-04-25T11:07:34.206Z,2.30
2018-04-25T11:10:06.443Z,3.80
2018-04-25T11:12:34.728Z,3.20
2018-04-25T11:15:07.479Z,8.80
2018-04-25T11:17:35.758Z,7.07
2018-04-25T11:20:05.710Z,5.77
2018-04-25T11:22:34.034Z,8.30
2018-04-25T11:25:05.780Z,8.67
2018-04-25T11:27:34.101Z,9.43
2018-04-25T11:30:05.810Z,9.30
2018-04-25T11:32:34.094Z,8.13
2018-04-25T11:35:09.251Z,8.33
2018-04-25T11:37:37.565Z,8.07
2018-04-25T11:40:05.909Z,8.63
2018-04-25T11:42:34.530Z,9.10
2018-04-25T11:45:06.368Z,9.63
2018-04-25T11:47:34.639Z,9.70
2018-04-25T11:50:06.605Z,9.23
2018-04-25T11:52:34.874Z,8.80
2018-04-25T11:55:06.986Z,8.30
2018-04-25T11:57:35.268Z,7.60
2018-04-25T12:00:07.399Z,8.60
2018-04-25T12:02:35.679Z,16.33
2018-04-25T12:05:07.647Z,8.57
2018-04-25T12:07:36.180Z,10.67
2018-04-25T12:10:06.217Z,10.53
2018-04-25T12:12:34.903Z,12.87
2018-04-25T12:15:07.063Z,6.00
2018-04-25T12:17:35.361Z,20.80
2018-04-25T12:20:06.615Z,25.80
2018-04-25T12:22:35.011Z,10.27
2018-04-25T12:25:06.728Z,7.30
2018-04-25T12:27:35.144Z,12.67
2018-04-25T12:30:07.237Z,7.30
2018-04-25T12:32:35.533Z,6.70
2018-04-25T12:35:07.671Z,7.53
2018-04-25T12:37:35.978Z,12.03
2018-04-25T12:40:05.790Z,6.80
2018-04-25T12:42:34.087Z,4.87
2018-04-25T12:45:07.326Z,6.47
2018-04-25T12:47:35.639Z,12.80
2018-04-25T12:50:06.863Z,8.23
2018-04-25T12:52:35.188Z,10.13
2018-04-25T12:55:07.111Z,5.90
2018-04-25T12:57:35.418Z,11.03
2018-04-25T13:00:07.673Z,9.00
2018-04-25T13:02:35.955Z,7.67
2018-04-25T13:05:07.784Z,7.87
2018-04-25T13:07:36.059Z,7.97
2018-04-25T13:10:05.910Z,6.40
2018-04-25T13:12:34.195Z,5.70
2018-04-25T13:15:05.713Z,5.57
2018-04-25T13:17:34.275Z,5.07
2018-04-25T13:20:06.407Z,8.80
2018-04-25T13:22:34.698Z,12.20
2018-04-25T13:25:05.935Z,10.10
2018-04-25T13:27:34.220Z,12.83
2018-04-25T13:30:09.413Z,8.30
2018-04-25T13:32:38.579Z,6.43
2018-04-25T13:35:06.878Z,6.30
2018-04-25T13:37:35.228Z,5.77
2018-04-25T13:40:07.118Z,8.33
2018-04-25T13:42:36.041Z,5.80
2018-04-25T13:45:06.015Z,4.83
2018-04-25T13:47:34.575Z,5.00
2018-04-25T13:50:05.993Z,5.87
2018-04-25T13:52:34.350Z,7.37
2018-04-25T13:55:06.241Z,6.37
2018-04-25T13:57:34.526Z,7.23
2018-04-25T14:00:06.381Z,5.47
2018-04-25T14:02:34.654Z,5.63
2018-04-25T14:05:06.554Z,5.93
2018-04-25T14:07:35.059Z,4.80
2018-04-25T14:10:06.855Z,4.40
2018-04-25T14:12:35.395Z,3.93
2018-04-25T14:15:07.213Z,4.60
2018-04-25T14:17:35.500Z,3.80
2018-04-25T14:20:07.598Z,4.50
2018-04-25T14:22:35.879Z,5.10
2018-04-25T14:25:05.979Z,5.27
2018-04-25T14:27:34.265Z,4.70
2018-04-25T14:30:09.472Z,4.43
2018-04-25T14:32:37.735Z,5.13
2018-04-25T14:35:06.024Z,5.50
2018-04-25T14:37:34.327Z,4.50
2018-04-25T14:40:09.588Z,6.40
2018-04-25T14:42:37.878Z,7.97
2018-04-25T14:45:06.424Z,6.33
2018-04-25T14:47:34.800Z,9.50
2018-04-25T14:50:06.051Z,8.03
2018-04-25T14:52:34.307Z,6.40
2018-04-25T14:55:09.506Z,6.33
2018-04-25T14:57:38.027Z,5.47
2018-04-25T15:00:06.632Z,8.37
2018-04-25T15:02:35.158Z,6.23
2018-04-25T15:05:07.080Z,9.20
2018-04-25T15:07:35.952Z,9.77
2018-04-25T15:10:07.287Z,5.33
2018-04-25T15:12:35.579Z,6.50
2018-04-25T15:15:07.676Z,5.13
2018-04-25T15:17:35.950Z,5.67
2018-04-25T15:20:05.955Z,6.17
2018-04-25T15:22:34.225Z,5.83
2018-04-25T15:25:06.137Z,5.67
2018-04-25T15:27:34.403Z,5.70
2018-04-25T15:30:09.663Z,5.40
2018-04-25T15:32:38.159Z,6.23
2018-04-25T15:35:06.464Z,6.00
2018-04-25T15:37:34.755Z,4.10
2018-04-25T15:40:06.023Z,4.20
2018-04-25T15:42:38.154Z,5.47
2018-04-25T15:45:06.413Z,4.13
2018-04-25T15:47:34.695Z,5.43
2018-04-25T15:50:06.803Z,8.60
2018-04-25T15:52:35.090Z,7.13
2018-04-25T15:55:07.202Z,6.53
2018-04-25T15:57:35.480Z,6.07
2018-04-25T16:00:07.547Z,4.87
2018-04-25T16:02:35.840Z,3.87
2018-04-25T16:05:07.746Z,6.23
2018-04-25T16:07:36.051Z,4.17
2018-04-25T16:10:06.147Z,3.80
2018-04-25T16:12:34.504Z,3.77
2018-04-25T16:15:05.903Z,4.03
2018-04-25T16:17:35.117Z,4.90
2018-04-25T16:20:07.031Z,4.57
2018-04-25T16:22:35.417Z,5.40
2018-04-25T16:25:11.335Z,4.90
2018-04-25T16:27:39.624Z,9.60
2018-04-25T16:30:08.437Z,7.50
2018-04-25T16:32:36.751Z,5.43
2018-04-25T16:35:07.153Z,5.53
2018-04-25T16:37:35.424Z,8.03
2018-04-25T16:40:07.463Z,7.57
2018-04-25T16:42:35.738Z,5.63
2018-04-25T16:45:07.745Z,3.80
2018-04-25T16:47:36.028Z,3.80
2018-04-25T16:50:07.342Z,3.80
2018-04-25T16:52:35.613Z,3.70
2018-04-25T16:55:07.056Z,6.03
2018-04-25T16:57:35.339Z,5.87
2018-04-25T17:00:06.191Z,10.77
2018-04-25T17:02:38.379Z,8.17
2018-04-25T17:05:07.267Z,6.87
2018-04-25T17:07:35.538Z,6.37
2018-04-25T17:10:07.355Z,6.40
2018-04-25T17:12:35.690Z,7.23
2018-04-25T17:15:07.395Z,4.77
2018-04-25T17:17:35.671Z,5.47
2018-04-25T17:20:07.688Z,6.87
2018-04-25T17:22:35.948Z,4.77
2018-04-25T17:25:07.289Z,7.70
2018-04-25T17:27:36.039Z,6.93
2018-04-25T17:30:08.036Z,5.63
2018-04-25T17:32:36.329Z,3.73
2018-04-25T17:35:06.524Z,4.10
2018-04-25T17:37:34.803Z,6.47
2018-04-25T17:40:06.667Z,4.80
2018-04-25T17:42:35.078Z,2.93
2018-04-25T17:45:06.931Z,5.10
2018-04-25T17:47:35.249Z,6.53
2018-04-25T17:50:06.610Z,3.10
2018-04-25T17:52:35.060Z,4.10
2018-04-25T17:55:07.071Z,17.73
2018-04-25T17:57:35.417Z,10.70
2018-04-25T18:00:06.129Z,7.60
2018-04-25T18:02:34.438Z,5.60
2018-04-25T18:05:06.291Z,8.00
2018-04-25T18:07:34.595Z,4.80
2018-04-25T18:10:06.372Z,5.07
2018-04-25T18:12:35.114Z,4.20
2018-04-25T18:15:06.258Z,5.60
2018-04-25T18:17:34.586Z,6.27
2018-04-25T18:20:06.373Z,2.60
2018-04-25T18:22:34.665Z,6.30
2018-04-25T18:25:06.530Z,3.70
2018-04-25T18:27:34.808Z,7.10
2018-04-25T18:30:06.169Z,9.93
2018-04-25T18:32:34.442Z,13.10
2018-04-25T18:35:07.702Z,8.17
2018-04-25T18:37:36.039Z,6.60
2018-04-25T18:40:07.360Z,8.57
2018-04-25T18:42:35.626Z,10.23
2018-04-25T18:45:07.061Z,4.83
2018-04-25T18:47:35.344Z,5.03
2018-04-25T18:50:07.223Z,4.00
2018-04-25T18:52:35.500Z,4.43
2018-04-25T18:55:07.636Z,4.27
2018-04-25T18:57:35.927Z,5.03
2018-04-25T19:00:07.143Z,7.23
2018-04-25T19:02:36.477Z,4.93
2018-04-25T19:05:06.506Z,5.20
2018-04-25T19:07:34.761Z,3.60
2018-04-25T19:10:06.265Z,3.73
2018-04-25T19:12:34.538Z,3.70
2018-04-25T19:15:06.311Z,3.33
2018-04-25T19:17:34.599Z,5.03
2018-04-25T19:20:06.475Z,4.53
2018-04-25T19:22:34.748Z,6.73
2018-04-25T19:25:06.706Z,9.93
2018-04-25T19:27:35.043Z,17.07
2018-04-25T19:30:06.806Z,18.03
2018-04-25T19:32:35.108Z,29.60
2018-04-25T19:35:06.583Z,17.17
2018-04-25T19:37:34.916Z,29.30
2018-04-25T19:40:06.531Z,34.40
2018-04-25T19:42:34.843Z,35.37
2018-04-25T19:45:06.792Z,17.33
2018-04-25T19:47:35.125Z,20.97
2018-04-25T19:50:06.777Z,7.80
2018-04-25T19:52:35.030Z,9.87
2018-04-25T19:55:09.105Z,5.97
2018-04-25T19:57:37.396Z,8.83
2018-04-25T20:00:07.593Z,10.07
2018-04-25T20:02:35.908Z,10.13
2018-04-25T20:05:06.617Z,9.17
2018-04-25T20:07:34.984Z,7.13
2018-04-25T20:10:06.437Z,9.57
2018-04-25T20:12:34.747Z,8.97
2018-04-25T20:15:06.233Z,4.07
2018-04-25T20:17:34.642Z,6.93
2018-04-25T20:20:06.080Z,5.20
2018-04-25T20:22:34.282Z,5.63
2018-04-25T20:25:06.137Z,6.67
2018-04-25T20:27:34.403Z,3.80
2018-04-25T20:30:06.295Z,3.53
2018-04-25T20:32:34.598Z,7.17
2018-04-25T20:35:06.727Z,17.50
2018-04-25T20:37:35.057Z,19.23
2018-04-25T20:40:06.511Z,8.37
2018-04-25T20:42:34.778Z,7.70
2018-04-25T20:45:06.463Z,4.57
2018-04-25T20:47:34.915Z,9.17
2018-04-25T20:50:07.098Z,6.50
2018-04-25T20:52:35.407Z,4.27
2018-04-25T20:55:08.079Z,5.47
2018-04-25T20:57:36.395Z,4.03
2018-04-25T21:00:09.655Z,5.23
2018-04-25T21:02:38.106Z,6.80
2018-04-25T21:05:07.115Z,6.30
2018-04-25T21:07:35.404Z,4.70
2018-04-25T21:10:06.999Z,3.03
2018-04-25T21:12:36.024Z,3.83
2018-04-25T21:15:08.155Z,2.73
2018-04-25T21:17:36.422Z,4.27
2018-04-25T21:20:06.467Z,4.97
2018-04-25T21:22:34.775Z,5.13
2018-04-25T21:25:06.368Z,8.17
2018-04-25T21:27:34.686Z,4.50
2018-04-25T21:30:08.832Z,5.70
2018-04-25T21:32:37.239Z,5.90
2018-04-25T21:35:06.649Z,7.73
2018-04-25T21:37:34.951Z,4.43
2018-04-25T21:40:06.511Z,4.53
2018-04-25T21:42:34.807Z,6.60
2018-04-25T21:45:06.262Z,4.00
2018-04-25T21:47:35.119Z,2.40
2018-04-25T21:50:06.787Z,5.33
2018-04-25T21:52:35.081Z,5.37
2018-04-25T21:55:06.847Z,4.90
2018-04-25T21:57:35.177Z,7.30
2018-04-25T22:00:09.115Z,5.70
2018-04-25T22:02:37.426Z,6.07
2018-04-25T22:05:06.803Z,5.27
2018-04-25T22:07:35.111Z,6.57
2018-04-25T22:10:06.631Z,6.70
2018-04-25T22:12:34.973Z,5.03
2018-04-25T22:15:06.869Z,7.90
2018-04-25T22:17:35.184Z,5.03
2018-04-25T22:20:07.123Z,5.67
2018-04-25T22:22:35.763Z,6.73
2018-04-25T22:25:07.482Z,6.17
2018-04-25T22:27:35.806Z,6.17
2018-04-25T22:30:05.711Z,8.47
2018-04-25T22:32:34.068Z,7.50
2018-04-25T22:40:32.925Z,7.17
2018-04-25T22:48:31.330Z,7.93
2018-04-25T22:50:59.840Z,8.27
2018-04-25T22:53:28.130Z,6.57
2018-04-25T22:55:56.406Z,6.80
2018-04-25T22:58:24.734Z,8.27
2018-04-25T23:00:52.992Z,6.93
2018-04-25T23:03:21.322Z,6.53
2018-04-25T23:05:49.893Z,5.83
2018-04-25T23:08:18.644Z,5.53
2018-04-25T23:10:46.875Z,5.60
2018-04-25T23:13:15.152Z,6.70
2018-04-25T23:15:43.462Z,7.73
2018-04-25T23:18:11.735Z,6.57
2018-04-25T23:20:40.048Z,7.30
2018-04-25T23:23:08.316Z,5.23
2018-04-25T23:25:36.601Z,6.03
2018-04-25T23:28:04.892Z,5.67
2018-04-25T23:30:33.383Z,5.27
2018-04-25T23:33:01.692Z,6.13
2018-04-25T23:35:29.961Z,6.17
2018-04-25T23:37:58.305Z,5.70
2018-04-25T23:40:26.574Z,4.53
2018-04-25T23:42:54.892Z,3.63
2018-04-25T23:45:23.149Z,4.87
2018-04-25T23:47:51.442Z,3.37
2018-04-25T23:50:19.867Z,5.13
2018-04-25T23:52:48.171Z,4.90
2018-04-25T23:55:16.430Z,6.27
2018-04-25T23:57:44.736Z,6.10
